sensor_id;sensor_type;location;lat;lon;timestamp;temperature;humidity
11922;DHT22;6021;51.182;3.160;2023-05-27T00:01:38;11.70;81.20
11922;DHT22;6021;51.182;3.160;2023-05-27T00:04:06;11.80;85.40
11922;DHT22;6021;51.182;3.160;2023-05-27T00:06:35;11.50;89.30
11922;DHT22;6021;51.182;3.160;2023-05-27T00:09:03;11.70;95.70
11922;DHT22;6021;51.182;3.160;2023-05-27T00:11:32;11.50;98.90
11922;DHT22;6021;51.182;3.160;2023-05-27T00:14:02;11.50;99.90
11922;DHT22;6021;51.182;3.160;2023-05-27T00:16:30;11.40;99.90
11922;DHT22;6021;51.182;3.160;2023-05-27T00:18:59;11.50;99.90
11922;DHT22;6021;51.182;3.160;2023-05-27T00:21:28;11.50;99.90
11922;DHT22;6021;51.182;3.160;2023-05-27T00:23:57;11.70;99.90
11922;DHT22;6021;51.182;3.160;2023-05-27T00:26:26;11.40;99.90
11922;DHT22;6021;51.182;3.160;2023-05-27T00:28:54;11.40;99.90
11922;DHT22;6021;51.182;3.160;2023-05-27T00:31:23;11.70;99.90
11922;DHT22;6021;51.182;3.160;2023-05-27T00:33:52;11.60;99.90
11922;DHT22;6021;51.182;3.160;2023-05-27T00:36:22;11.50;99.90
11922;DHT22;6021;51.182;3.160;2023-05-27T00:38:50;11.70;99.90
11922;DHT22;6021;51.182;3.160;2023-05-27T00:41:18;11.50;99.90
11922;DHT22;6021;51.182;3.160;2023-05-27T00:43:49;11.40;99.90
11922;DHT22;6021;51.182;3.160;2023-05-27T00:46:18;11.50;99.90
11922;DHT22;6021;51.182;3.160;2023-05-27T00:48:53;11.70;93.90
11922;DHT22;6021;51.182;3.160;2023-05-27T00:51:17;11.50;97.20
11922;DHT22;6021;51.182;3.160;2023-05-27T00:53:46;11.60;99.90
11922;DHT22;6021;51.182;3.160;2023-05-27T00:56:15;11.50;99.90
11922;DHT22;6021;51.182;3.160;2023-05-27T00:58:43;11.40;99.90
11922;DHT22;6021;51.182;3.160;2023-05-27T01:01:12;11.40;99.90
11922;DHT22;6021;51.182;3.160;2023-05-27T01:11:51;11.60;89.10
11922;DHT22;6021;51.182;3.160;2023-05-27T01:14:21;11.90;83.70
11922;DHT22;6021;51.182;3.160;2023-05-27T01:16:53;12.00;80.10
11922;DHT22;6021;51.182;3.160;2023-05-27T01:19:33;12.00;71.50
11922;DHT22;6021;51.182;3.160;2023-05-27T01:22:02;12.00;79.60
11922;DHT22;6021;51.182;3.160;2023-05-27T01:24:31;11.80;78.20
11922;DHT22;6021;51.182;3.160;2023-05-27T01:27:00;11.80;59.10
11922;DHT22;6021;51.182;3.160;2023-05-27T01:29:31;11.60;68.10
11922;DHT22;6021;51.182;3.160;2023-05-27T01:32:14;11.50;81.60
11922;DHT22;6021;51.182;3.160;2023-05-27T01:35:01;11.50;92.50
11922;DHT22;6021;51.182;3.160;2023-05-27T01:37:31;11.50;98.20
11922;DHT22;6021;51.182;3.160;2023-05-27T01:40:01;11.40;99.90
11922;DHT22;6021;51.182;3.160;2023-05-27T01:42:36;11.40;99.90
11922;DHT22;6021;51.182;3.160;2023-05-27T01:45:09;11.10;99.90
11922;DHT22;6021;51.182;3.160;2023-05-27T01:47:38;11.10;99.90
11922;DHT22;6021;51.182;3.160;2023-05-27T01:50:07;11.30;99.90
11922;DHT22;6021;51.182;3.160;2023-05-27T01:52:45;11.10;99.90
11922;DHT22;6021;51.182;3.160;2023-05-27T01:55:08;11.00;99.90
11922;DHT22;6021;51.182;3.160;2023-05-27T01:57:37;11.00;99.90
11922;DHT22;6021;51.182;3.160;2023-05-27T02:00:06;11.10;99.90
11922;DHT22;6021;51.182;3.160;2023-05-27T02:02:36;10.90;99.90
11922;DHT22;6021;51.182;3.160;2023-05-27T02:05:04;10.70;99.90
11922;DHT22;6021;51.182;3.160;2023-05-27T02:07:36;10.80;99.90
11922;DHT22;6021;51.182;3.160;2023-05-27T02:10:06;10.80;99.90
11922;DHT22;6021;51.182;3.160;2023-05-27T02:12:37;10.70;99.90
11922;DHT22;6021;51.182;3.160;2023-05-27T02:15:05;11.00;99.90
11922;DHT22;6021;51.182;3.160;2023-05-27T02:17:49;10.70;99.90
11922;DHT22;6021;51.182;3.160;2023-05-27T02:20:13;10.50;99.90
11922;DHT22;6021;51.182;3.160;2023-05-27T02:22:44;10.70;99.90
11922;DHT22;6021;51.182;3.160;2023-05-27T02:25:12;10.50;99.90
11922;DHT22;6021;51.182;3.160;2023-05-27T02:27:41;10.70;99.90
11922;DHT22;6021;51.182;3.160;2023-05-27T02:30:14;10.70;99.90
11922;DHT22;6021;51.182;3.160;2023-05-27T02:32:43;10.60;99.90
11922;DHT22;6021;51.182;3.160;2023-05-27T02:35:13;10.50;99.90
11922;DHT22;6021;51.182;3.160;2023-05-27T02:37:46;10.70;99.90
11922;DHT22;6021;51.182;3.160;2023-05-27T02:40:30;10.60;99.90
11922;DHT22;6021;51.182;3.160;2023-05-27T02:43:05;10.60;99.90
11922;DHT22;6021;51.182;3.160;2023-05-27T02:45:39;10.80;99.90
11922;DHT22;6021;51.182;3.160;2023-05-27T02:48:05;10.50;99.90
11922;DHT22;6021;51.182;3.160;2023-05-27T02:50:34;10.70;99.90
11922;DHT22;6021;51.182;3.160;2023-05-27T02:53:04;10.40;99.90
11922;DHT22;6021;51.182;3.160;2023-05-27T02:55:32;10.50;99.90
11922;DHT22;6021;51.182;3.160;2023-05-27T02:58:00;10.60;99.90
11922;DHT22;6021;51.182;3.160;2023-05-27T03:00:31;10.40;99.90
11922;DHT22;6021;51.182;3.160;2023-05-27T03:03:00;10.60;99.90
11922;DHT22;6021;51.182;3.160;2023-05-27T03:05:30;10.40;99.90
11922;DHT22;6021;51.182;3.160;2023-05-27T03:07:58;10.40;99.90
11922;DHT22;6021;51.182;3.160;2023-05-27T03:10:27;10.50;99.90
11922;DHT22;6021;51.182;3.160;2023-05-27T03:12:55;10.40;99.90
11922;DHT22;6021;51.182;3.160;2023-05-27T03:15:24;10.40;99.90
11922;DHT22;6021;51.182;3.160;2023-05-27T03:17:52;10.50;99.90
11922;DHT22;6021;51.182;3.160;2023-05-27T03:20:23;10.50;99.90
11922;DHT22;6021;51.182;3.160;2023-05-27T03:22:54;10.40;99.90
11922;DHT22;6021;51.182;3.160;2023-05-27T03:25:23;10.70;99.90
11922;DHT22;6021;51.182;3.160;2023-05-27T03:27:52;10.40;99.90
11922;DHT22;6021;51.182;3.160;2023-05-27T03:30:24;10.20;99.90
11922;DHT22;6021;51.182;3.160;2023-05-27T03:32:54;10.40;99.90
11922;DHT22;6021;51.182;3.160;2023-05-27T03:35:23;10.20;99.90
11922;DHT22;6021;51.182;3.160;2023-05-27T03:37:53;10.30;99.90
11922;DHT22;6021;51.182;3.160;2023-05-27T03:40:21;10.30;99.90
11922;DHT22;6021;51.182;3.160;2023-05-27T03:42:50;10.40;99.90
11922;DHT22;6021;51.182;3.160;2023-05-27T03:45:18;10.40;99.90
11922;DHT22;6021;51.182;3.160;2023-05-27T03:47:48;10.30;99.90
11922;DHT22;6021;51.182;3.160;2023-05-27T03:50:17;10.40;99.90
11922;DHT22;6021;51.182;3.160;2023-05-27T03:52:48;10.30;99.90
11922;DHT22;6021;51.182;3.160;2023-05-27T03:55:17;10.60;99.90
11922;DHT22;6021;51.182;3.160;2023-05-27T03:58:13;10.40;99.90
11922;DHT22;6021;51.182;3.160;2023-05-27T04:00:35;10.30;99.90
11922;DHT22;6021;51.182;3.160;2023-05-27T04:03:07;10.10;99.90
11922;DHT22;6021;51.182;3.160;2023-05-27T04:05:35;10.20;99.90
11922;DHT22;6021;51.182;3.160;2023-05-27T04:08:05;10.10;99.90
11922;DHT22;6021;51.182;3.160;2023-05-27T04:10:34;10.20;99.90
11922;DHT22;6021;51.182;3.160;2023-05-27T04:13:02;10.20;99.90
11922;DHT22;6021;51.182;3.160;2023-05-27T04:15:35;10.10;99.90
11922;DHT22;6021;51.182;3.160;2023-05-27T04:18:03;10.20;99.90
11922;DHT22;6021;51.182;3.160;2023-05-27T04:20:38;10.20;99.90
11922;DHT22;6021;51.182;3.160;2023-05-27T04:23:08;9.80;99.90
11922;DHT22;6021;51.182;3.160;2023-05-27T04:25:42;10.00;99.90
11922;DHT22;6021;51.182;3.160;2023-05-27T04:28:11;10.00;99.90
11922;DHT22;6021;51.182;3.160;2023-05-27T04:30:44;10.00;99.90
11922;DHT22;6021;51.182;3.160;2023-05-27T04:33:17;10.00;99.90
11922;DHT22;6021;51.182;3.160;2023-05-27T04:35:49;10.10;99.90
11922;DHT22;6021;51.182;3.160;2023-05-27T04:38:19;10.40;99.90
11922;DHT22;6021;51.182;3.160;2023-05-27T04:40:49;10.00;99.90
11922;DHT22;6021;51.182;3.160;2023-05-27T04:43:23;10.00;99.90
11922;DHT22;6021;51.182;3.160;2023-05-27T04:45:57;10.00;99.90
11922;DHT22;6021;51.182;3.160;2023-05-27T04:48:25;10.00;99.90
11922;DHT22;6021;51.182;3.160;2023-05-27T04:50:54;10.10;99.90
11922;DHT22;6021;51.182;3.160;2023-05-27T04:53:30;10.10;99.90
11922;DHT22;6021;51.182;3.160;2023-05-27T04:55:57;10.00;99.90
11922;DHT22;6021;51.182;3.160;2023-05-27T04:58:26;10.30;99.90
11922;DHT22;6021;51.182;3.160;2023-05-27T05:00:57;10.40;99.90
11922;DHT22;6021;51.182;3.160;2023-05-27T05:06:16;10.00;99.90
11922;DHT22;6021;51.182;3.160;2023-05-27T05:08:50;10.00;99.90
11922;DHT22;6021;51.182;3.160;2023-05-27T05:11:15;10.00;99.90
11922;DHT22;6021;51.182;3.160;2023-05-27T05:13:43;10.30;99.90
11922;DHT22;6021;51.182;3.160;2023-05-27T05:16:12;10.10;99.90
11922;DHT22;6021;51.182;3.160;2023-05-27T05:18:40;10.10;99.90
11922;DHT22;6021;51.182;3.160;2023-05-27T05:21:09;10.40;99.90
11922;DHT22;6021;51.182;3.160;2023-05-27T05:23:40;10.20;99.90
11922;DHT22;6021;51.182;3.160;2023-05-27T05:26:09;10.30;99.90
11922;DHT22;6021;51.182;3.160;2023-05-27T05:28:38;10.10;99.90
11922;DHT22;6021;51.182;3.160;2023-05-27T05:31:06;10.20;99.90
11922;DHT22;6021;51.182;3.160;2023-05-27T05:33:35;10.10;99.90
11922;DHT22;6021;51.182;3.160;2023-05-27T05:36:07;10.20;99.90
11922;DHT22;6021;51.182;3.160;2023-05-27T05:38:39;10.40;99.90
11922;DHT22;6021;51.182;3.160;2023-05-27T05:41:09;10.70;99.90
11922;DHT22;6021;51.182;3.160;2023-05-27T05:43:39;10.60;99.90
11922;DHT22;6021;51.182;3.160;2023-05-27T05:46:13;10.60;99.90
11922;DHT22;6021;51.182;3.160;2023-05-27T05:48:37;10.40;99.90
11922;DHT22;6021;51.182;3.160;2023-05-27T05:51:06;10.70;99.90
11922;DHT22;6021;51.182;3.160;2023-05-27T05:53:35;10.40;99.90
11922;DHT22;6021;51.182;3.160;2023-05-27T05:56:04;10.90;99.90
11922;DHT22;6021;51.182;3.160;2023-05-27T05:58:33;10.70;99.90
11922;DHT22;6021;51.182;3.160;2023-05-27T06:03:48;10.70;99.90
11922;DHT22;6021;51.182;3.160;2023-05-27T06:06:17;10.70;99.90
11922;DHT22;6021;51.182;3.160;2023-05-27T06:08:46;10.80;99.90
11922;DHT22;6021;51.182;3.160;2023-05-27T06:11:14;10.70;99.90
11922;DHT22;6021;51.182;3.160;2023-05-27T06:13:43;10.90;99.90
11922;DHT22;6021;51.182;3.160;2023-05-27T06:16:11;11.00;99.90
11922;DHT22;6021;51.182;3.160;2023-05-27T06:18:40;11.10;99.90
11922;DHT22;6021;51.182;3.160;2023-05-27T06:21:10;11.10;99.90
11922;DHT22;6021;51.182;3.160;2023-05-27T06:23:45;11.10;99.90
11922;DHT22;6021;51.182;3.160;2023-05-27T06:26:19;11.10;99.90
11922;DHT22;6021;51.182;3.160;2023-05-27T06:28:49;11.60;94.30
11922;DHT22;6021;51.182;3.160;2023-05-27T06:31:52;11.30;93.10
11922;DHT22;6021;51.182;3.160;2023-05-27T06:34:21;11.40;65.50
11922;DHT22;6021;51.182;3.160;2023-05-27T06:36:49;11.60;47.80
11922;DHT22;6021;51.182;3.160;2023-05-27T06:39:22;11.50;60.40
11922;DHT22;6021;51.182;3.160;2023-05-27T06:41:57;11.70;52.00
11922;DHT22;6021;51.182;3.160;2023-05-27T06:44:28;12.00;45.60
11922;DHT22;6021;51.182;3.160;2023-05-27T06:46:57;12.00;32.30
11922;DHT22;6021;51.182;3.160;2023-05-27T06:49:26;11.70;36.80
11922;DHT22;6021;51.182;3.160;2023-05-27T06:51:54;11.70;38.40
11922;DHT22;6021;51.182;3.160;2023-05-27T06:54:37;11.90;27.10
11922;DHT22;6021;51.182;3.160;2023-05-27T06:57:18;12.20;27.70
11922;DHT22;6021;51.182;3.160;2023-05-27T07:03:23;12.20;22.30
11922;DHT22;6021;51.182;3.160;2023-05-27T07:05:52;12.00;16.00
11922;DHT22;6021;51.182;3.160;2023-05-27T07:08:21;12.30;16.10
11922;DHT22;6021;51.182;3.160;2023-05-27T07:10:55;12.00;13.80
11922;DHT22;6021;51.182;3.160;2023-05-27T07:13:24;12.10;11.00
11922;DHT22;6021;51.182;3.160;2023-05-27T07:16:13;12.60;3.40
11922;DHT22;6021;51.182;3.160;2023-05-27T07:18:45;12.60;1.00
11922;DHT22;6021;51.182;3.160;2023-05-27T07:21:14;12.80;1.00
11922;DHT22;6021;51.182;3.160;2023-05-27T07:23:42;13.00;1.00
11922;DHT22;6021;51.182;3.160;2023-05-27T07:26:10;12.90;1.00
11922;DHT22;6021;51.182;3.160;2023-05-27T07:28:39;13.10;1.00
11922;DHT22;6021;51.182;3.160;2023-05-27T07:34:06;12.90;1.00
11922;DHT22;6021;51.182;3.160;2023-05-27T07:36:35;12.90;1.00
11922;DHT22;6021;51.182;3.160;2023-05-27T07:39:05;13.00;1.00
11922;DHT22;6021;51.182;3.160;2023-05-27T07:41:34;13.10;1.00
11922;DHT22;6021;51.182;3.160;2023-05-27T07:44:03;13.10;1.00
11922;DHT22;6021;51.182;3.160;2023-05-27T07:46:32;13.10;1.00
11922;DHT22;6021;51.182;3.160;2023-05-27T07:49:01;13.10;1.00
11922;DHT22;6021;51.182;3.160;2023-05-27T07:51:29;13.20;1.00
11922;DHT22;6021;51.182;3.160;2023-05-27T07:53:59;13.50;1.00
11922;DHT22;6021;51.182;3.160;2023-05-27T07:56:27;13.40;1.00
11922;DHT22;6021;51.182;3.160;2023-05-27T07:58:56;13.50;1.00
11922;DHT22;6021;51.182;3.160;2023-05-27T08:01:25;13.50;1.00
11922;DHT22;6021;51.182;3.160;2023-05-27T08:03:55;13.50;1.00
11922;DHT22;6021;51.182;3.160;2023-05-27T08:06:25;13.70;1.00
11922;DHT22;6021;51.182;3.160;2023-05-27T08:08:53;13.70;1.00
11922;DHT22;6021;51.182;3.160;2023-05-27T08:11:22;13.70;1.00
11922;DHT22;6021;51.182;3.160;2023-05-27T08:13:50;13.80;1.00
11922;DHT22;6021;51.182;3.160;2023-05-27T08:16:18;13.90;1.00
11922;DHT22;6021;51.182;3.160;2023-05-27T08:18:47;14.00;1.00
11922;DHT22;6021;51.182;3.160;2023-05-27T08:21:15;14.10;1.00
11922;DHT22;6021;51.182;3.160;2023-05-27T08:23:43;14.10;1.00
11922;DHT22;6021;51.182;3.160;2023-05-27T08:26:11;14.30;1.00
11922;DHT22;6021;51.182;3.160;2023-05-27T08:28:40;14.40;1.00
11922;DHT22;6021;51.182;3.160;2023-05-27T08:31:09;14.40;1.00
11922;DHT22;6021;51.182;3.160;2023-05-27T08:33:38;14.40;1.00
11922;DHT22;6021;51.182;3.160;2023-05-27T08:36:07;14.60;1.00
11922;DHT22;6021;51.182;3.160;2023-05-27T08:38:35;14.60;1.00
11922;DHT22;6021;51.182;3.160;2023-05-27T08:41:04;14.60;1.00
11922;DHT22;6021;51.182;3.160;2023-05-27T08:43:33;14.60;1.00
11922;DHT22;6021;51.182;3.160;2023-05-27T08:46:03;14.60;1.00
11922;DHT22;6021;51.182;3.160;2023-05-27T08:48:32;14.60;1.00
11922;DHT22;6021;51.182;3.160;2023-05-27T08:51:00;14.80;1.00
11922;DHT22;6021;51.182;3.160;2023-05-27T08:53:31;14.80;1.00
11922;DHT22;6021;51.182;3.160;2023-05-27T08:56:00;14.80;1.00
11922;DHT22;6021;51.182;3.160;2023-05-27T08:58:29;14.90;1.00
11922;DHT22;6021;51.182;3.160;2023-05-27T09:00:58;15.00;1.00
11922;DHT22;6021;51.182;3.160;2023-05-27T09:03:28;15.20;1.00
11922;DHT22;6021;51.182;3.160;2023-05-27T09:05:57;15.30;1.00
11922;DHT22;6021;51.182;3.160;2023-05-27T09:08:29;15.30;1.00
11922;DHT22;6021;51.182;3.160;2023-05-27T09:10:57;15.30;1.00
11922;DHT22;6021;51.182;3.160;2023-05-27T09:13:29;15.20;1.00
11922;DHT22;6021;51.182;3.160;2023-05-27T09:16:00;15.30;1.00
11922;DHT22;6021;51.182;3.160;2023-05-27T09:18:30;15.40;1.00
11922;DHT22;6021;51.182;3.160;2023-05-27T09:20:59;15.50;1.00
11922;DHT22;6021;51.182;3.160;2023-05-27T09:23:30;15.50;1.00
11922;DHT22;6021;51.182;3.160;2023-05-27T09:25:59;15.50;1.00
11922;DHT22;6021;51.182;3.160;2023-05-27T09:28:28;15.40;1.00
11922;DHT22;6021;51.182;3.160;2023-05-27T09:31:05;15.50;1.00
11922;DHT22;6021;51.182;3.160;2023-05-27T09:33:38;15.60;1.00
11922;DHT22;6021;51.182;3.160;2023-05-27T09:36:07;15.60;1.00
11922;DHT22;6021;51.182;3.160;2023-05-27T09:38:38;15.60;1.00
11922;DHT22;6021;51.182;3.160;2023-05-27T09:41:08;15.80;1.00
11922;DHT22;6021;51.182;3.160;2023-05-27T09:43:37;15.80;1.00
11922;DHT22;6021;51.182;3.160;2023-05-27T09:46:11;15.80;1.00
11922;DHT22;6021;51.182;3.160;2023-05-27T09:48:43;15.80;1.00
11922;DHT22;6021;51.182;3.160;2023-05-27T09:51:12;15.90;1.00
11922;DHT22;6021;51.182;3.160;2023-05-27T09:53:42;15.90;1.00
11922;DHT22;6021;51.182;3.160;2023-05-27T09:56:11;16.00;1.00
11922;DHT22;6021;51.182;3.160;2023-05-27T09:58:39;16.00;1.00
11922;DHT22;6021;51.182;3.160;2023-05-27T10:01:09;16.10;1.00
11922;DHT22;6021;51.182;3.160;2023-05-27T10:03:37;16.10;1.00
11922;DHT22;6021;51.182;3.160;2023-05-27T10:06:08;16.30;1.00
11922;DHT22;6021;51.182;3.160;2023-05-27T10:08:42;16.30;1.00
11922;DHT22;6021;51.182;3.160;2023-05-27T10:11:17;16.40;1.00
11922;DHT22;6021;51.182;3.160;2023-05-27T10:13:48;16.40;1.00
11922;DHT22;6021;51.182;3.160;2023-05-27T10:16:22;16.50;1.00
11922;DHT22;6021;51.182;3.160;2023-05-27T10:18:54;16.50;1.00
11922;DHT22;6021;51.182;3.160;2023-05-27T10:21:26;16.60;1.00
11922;DHT22;6021;51.182;3.160;2023-05-27T10:24:02;16.60;1.00
11922;DHT22;6021;51.182;3.160;2023-05-27T10:26:36;16.70;1.00
11922;DHT22;6021;51.182;3.160;2023-05-27T10:29:16;16.70;1.00
11922;DHT22;6021;51.182;3.160;2023-05-27T10:31:50;16.80;1.00
11922;DHT22;6021;51.182;3.160;2023-05-27T10:34:21;16.80;1.00
11922;DHT22;6021;51.182;3.160;2023-05-27T10:37:00;16.90;1.00
11922;DHT22;6021;51.182;3.160;2023-05-27T10:39:29;17.20;1.00
11922;DHT22;6021;51.182;3.160;2023-05-27T10:42:05;17.00;1.00
11922;DHT22;6021;51.182;3.160;2023-05-27T10:44:36;17.00;1.00
11922;DHT22;6021;51.182;3.160;2023-05-27T10:47:12;17.30;1.00
11922;DHT22;6021;51.182;3.160;2023-05-27T10:49:44;17.30;1.00
11922;DHT22;6021;51.182;3.160;2023-05-27T10:52:16;17.30;1.00
11922;DHT22;6021;51.182;3.160;2023-05-27T10:54:49;17.30;1.00
11922;DHT22;6021;51.182;3.160;2023-05-27T10:57:19;17.40;1.00
11922;DHT22;6021;51.182;3.160;2023-05-27T10:59:51;17.50;1.00
11922;DHT22;6021;51.182;3.160;2023-05-27T11:02:20;17.50;1.00
11922;DHT22;6021;51.182;3.160;2023-05-27T11:04:49;17.50;1.00
11922;DHT22;6021;51.182;3.160;2023-05-27T11:07:24;17.60;1.00
11922;DHT22;6021;51.182;3.160;2023-05-27T11:09:54;17.50;1.00
11922;DHT22;6021;51.182;3.160;2023-05-27T11:12:32;17.40;1.00
11922;DHT22;6021;51.182;3.160;2023-05-27T11:14:57;17.50;1.00
11922;DHT22;6021;51.182;3.160;2023-05-27T11:17:25;17.50;1.00
11922;DHT22;6021;51.182;3.160;2023-05-27T11:19:54;17.60;1.00
11922;DHT22;6021;51.182;3.160;2023-05-27T11:22:24;17.80;1.00
11922;DHT22;6021;51.182;3.160;2023-05-27T11:24:59;17.90;1.00
11922;DHT22;6021;51.182;3.160;2023-05-27T11:27:38;17.80;1.00
11922;DHT22;6021;51.182;3.160;2023-05-27T11:30:11;17.90;1.00
11922;DHT22;6021;51.182;3.160;2023-05-27T11:32:43;17.90;1.00
11922;DHT22;6021;51.182;3.160;2023-05-27T11:35:18;17.80;1.00
11922;DHT22;6021;51.182;3.160;2023-05-27T11:37:51;17.70;1.00
11922;DHT22;6021;51.182;3.160;2023-05-27T11:40:25;17.70;1.00
11922;DHT22;6021;51.182;3.160;2023-05-27T11:43:03;17.70;1.00
11922;DHT22;6021;51.182;3.160;2023-05-27T11:45:34;17.80;1.00
11922;DHT22;6021;51.182;3.160;2023-05-27T11:48:03;17.70;1.00
11922;DHT22;6021;51.182;3.160;2023-05-27T11:50:34;17.80;1.00
11922;DHT22;6021;51.182;3.160;2023-05-27T11:53:04;17.90;1.00
11922;DHT22;6021;51.182;3.160;2023-05-27T11:55:33;18.00;1.00
11922;DHT22;6021;51.182;3.160;2023-05-27T11:58:01;18.00;1.00
11922;DHT22;6021;51.182;3.160;2023-05-27T12:00:30;17.90;1.00
11922;DHT22;6021;51.182;3.160;2023-05-27T12:02:58;18.00;1.00
11922;DHT22;6021;51.182;3.160;2023-05-27T12:05:27;17.90;1.00
11922;DHT22;6021;51.182;3.160;2023-05-27T12:07:55;18.00;1.00
11922;DHT22;6021;51.182;3.160;2023-05-27T12:10:23;17.80;1.00
11922;DHT22;6021;51.182;3.160;2023-05-27T12:12:52;17.80;1.00
11922;DHT22;6021;51.182;3.160;2023-05-27T12:15:20;17.80;1.00
11922;DHT22;6021;51.182;3.160;2023-05-27T12:17:52;17.70;1.00
11922;DHT22;6021;51.182;3.160;2023-05-27T12:20:22;17.60;1.00
11922;DHT22;6021;51.182;3.160;2023-05-27T12:22:51;17.60;1.00
11922;DHT22;6021;51.182;3.160;2023-05-27T12:25:20;17.60;1.00
11922;DHT22;6021;51.182;3.160;2023-05-27T12:27:48;17.70;1.00
11922;DHT22;6021;51.182;3.160;2023-05-27T12:30:17;17.80;1.00
11922;DHT22;6021;51.182;3.160;2023-05-27T12:32:46;17.70;1.00
11922;DHT22;6021;51.182;3.160;2023-05-27T12:35:16;17.70;1.00
11922;DHT22;6021;51.182;3.160;2023-05-27T12:37:46;17.80;1.00
11922;DHT22;6021;51.182;3.160;2023-05-27T12:40:15;17.80;1.00
11922;DHT22;6021;51.182;3.160;2023-05-27T12:42:43;17.80;1.00
11922;DHT22;6021;51.182;3.160;2023-05-27T12:45:12;17.80;1.00
11922;DHT22;6021;51.182;3.160;2023-05-27T12:47:40;17.70;1.00
11922;DHT22;6021;51.182;3.160;2023-05-27T12:50:09;17.70;1.00
11922;DHT22;6021;51.182;3.160;2023-05-27T12:52:38;17.60;1.00
11922;DHT22;6021;51.182;3.160;2023-05-27T12:55:08;17.60;1.00
11922;DHT22;6021;51.182;3.160;2023-05-27T12:57:40;17.60;1.00
11922;DHT22;6021;51.182;3.160;2023-05-27T13:00:12;17.60;1.00
11922;DHT22;6021;51.182;3.160;2023-05-27T13:02:53;17.70;1.00
11922;DHT22;6021;51.182;3.160;2023-05-27T13:05:21;17.70;1.00
11922;DHT22;6021;51.182;3.160;2023-05-27T13:10:45;17.80;1.00
11922;DHT22;6021;51.182;3.160;2023-05-27T13:13:15;17.80;1.00
11922;DHT22;6021;51.182;3.160;2023-05-27T13:15:43;17.70;1.00
11922;DHT22;6021;51.182;3.160;2023-05-27T13:18:14;17.70;1.00
11922;DHT22;6021;51.182;3.160;2023-05-27T13:29:13;17.80;1.00
11922;DHT22;6021;51.182;3.160;2023-05-27T13:31:41;17.80;1.00
11922;DHT22;6021;51.182;3.160;2023-05-27T13:34:10;17.80;1.00
11922;DHT22;6021;51.182;3.160;2023-05-27T13:36:44;17.80;1.00
11922;DHT22;6021;51.182;3.160;2023-05-27T13:39:13;17.80;1.00
11922;DHT22;6021;51.182;3.160;2023-05-27T13:41:48;17.90;1.00
11922;DHT22;6021;51.182;3.160;2023-05-27T13:44:13;18.00;1.00
11922;DHT22;6021;51.182;3.160;2023-05-27T13:46:48;17.90;1.00
11922;DHT22;6021;51.182;3.160;2023-05-27T13:49:17;17.90;1.00
11922;DHT22;6021;51.182;3.160;2023-05-27T13:51:46;17.90;1.00
11922;DHT22;6021;51.182;3.160;2023-05-27T13:54:19;17.90;1.00
11922;DHT22;6021;51.182;3.160;2023-05-27T13:56:46;17.80;1.00
11922;DHT22;6021;51.182;3.160;2023-05-27T13:59:17;17.80;1.00
11922;DHT22;6021;51.182;3.160;2023-05-27T14:01:46;17.90;1.00
11922;DHT22;6021;51.182;3.160;2023-05-27T14:04:17;17.80;1.00
11922;DHT22;6021;51.182;3.160;2023-05-27T14:06:49;17.70;1.00
11922;DHT22;6021;51.182;3.160;2023-05-27T14:09:18;17.80;1.00
11922;DHT22;6021;51.182;3.160;2023-05-27T14:11:46;17.90;1.00
11922;DHT22;6021;51.182;3.160;2023-05-27T14:14:15;18.00;1.00
11922;DHT22;6021;51.182;3.160;2023-05-27T14:16:43;18.00;1.00
11922;DHT22;6021;51.182;3.160;2023-05-27T14:19:18;18.00;1.00
11922;DHT22;6021;51.182;3.160;2023-05-27T14:21:49;18.20;1.00
11922;DHT22;6021;51.182;3.160;2023-05-27T14:24:19;18.00;1.00
11922;DHT22;6021;51.182;3.160;2023-05-27T14:26:48;18.10;1.00
11922;DHT22;6021;51.182;3.160;2023-05-27T14:29:16;18.10;1.00
11922;DHT22;6021;51.182;3.160;2023-05-27T14:31:49;18.00;1.00
11922;DHT22;6021;51.182;3.160;2023-05-27T14:34:19;18.00;1.00
11922;DHT22;6021;51.182;3.160;2023-05-27T14:36:47;18.00;1.00
11922;DHT22;6021;51.182;3.160;2023-05-27T14:39:20;17.90;1.00
11922;DHT22;6021;51.182;3.160;2023-05-27T14:41:50;17.90;1.00
11922;DHT22;6021;51.182;3.160;2023-05-27T14:44:29;17.90;1.00
11922;DHT22;6021;51.182;3.160;2023-05-27T14:46:57;17.80;1.00
11922;DHT22;6021;51.182;3.160;2023-05-27T14:49:26;17.90;1.00
11922;DHT22;6021;51.182;3.160;2023-05-27T14:51:54;17.80;1.00
11922;DHT22;6021;51.182;3.160;2023-05-27T14:54:22;17.80;1.00
11922;DHT22;6021;51.182;3.160;2023-05-27T14:56:51;17.90;1.00
11922;DHT22;6021;51.182;3.160;2023-05-27T14:59:19;17.90;1.00
11922;DHT22;6021;51.182;3.160;2023-05-27T15:01:49;17.80;1.00
11922;DHT22;6021;51.182;3.160;2023-05-27T15:04:18;17.90;1.00
11922;DHT22;6021;51.182;3.160;2023-05-27T15:06:46;17.90;1.00
11922;DHT22;6021;51.182;3.160;2023-05-27T15:09:15;17.90;1.00
11922;DHT22;6021;51.182;3.160;2023-05-27T15:11:44;17.90;1.00
11922;DHT22;6021;51.182;3.160;2023-05-27T15:14:13;17.90;1.00
11922;DHT22;6021;51.182;3.160;2023-05-27T15:16:43;17.90;1.00
11922;DHT22;6021;51.182;3.160;2023-05-27T15:19:13;17.90;1.00
11922;DHT22;6021;51.182;3.160;2023-05-27T15:21:44;18.00;1.00
11922;DHT22;6021;51.182;3.160;2023-05-27T15:24:13;17.90;1.00
11922;DHT22;6021;51.182;3.160;2023-05-27T15:26:41;17.90;1.00
11922;DHT22;6021;51.182;3.160;2023-05-27T15:29:11;17.90;1.00
11922;DHT22;6021;51.182;3.160;2023-05-27T15:31:40;17.90;1.00
11922;DHT22;6021;51.182;3.160;2023-05-27T15:34:09;17.80;1.00
11922;DHT22;6021;51.182;3.160;2023-05-27T15:36:40;17.70;1.00
11922;DHT22;6021;51.182;3.160;2023-05-27T15:39:29;17.70;1.00
11922;DHT22;6021;51.182;3.160;2023-05-27T15:42:02;17.70;1.00
11922;DHT22;6021;51.182;3.160;2023-05-27T15:44:33;17.70;1.00
11922;DHT22;6021;51.182;3.160;2023-05-27T15:47:03;17.80;1.00
11922;DHT22;6021;51.182;3.160;2023-05-27T15:49:32;17.70;1.00
11922;DHT22;6021;51.182;3.160;2023-05-27T15:52:04;17.70;1.00
11922;DHT22;6021;51.182;3.160;2023-05-27T15:54:38;17.80;1.00
11922;DHT22;6021;51.182;3.160;2023-05-27T15:57:07;17.80;1.00
11922;DHT22;6021;51.182;3.160;2023-05-27T15:59:40;17.80;1.00
11922;DHT22;6021;51.182;3.160;2023-05-27T16:02:11;17.80;1.00
11922;DHT22;6021;51.182;3.160;2023-05-27T16:04:39;17.70;1.00
11922;DHT22;6021;51.182;3.160;2023-05-27T16:07:07;17.60;1.00
11922;DHT22;6021;51.182;3.160;2023-05-27T16:09:39;17.60;1.00
11922;DHT22;6021;51.182;3.160;2023-05-27T16:12:09;17.60;1.00
11922;DHT22;6021;51.182;3.160;2023-05-27T16:14:42;17.50;1.00
11922;DHT22;6021;51.182;3.160;2023-05-27T16:17:11;17.50;1.00
11922;DHT22;6021;51.182;3.160;2023-05-27T16:19:42;17.50;1.00
11922;DHT22;6021;51.182;3.160;2023-05-27T16:22:10;17.40;1.00
11922;DHT22;6021;51.182;3.160;2023-05-27T16:24:38;17.40;1.00
11922;DHT22;6021;51.182;3.160;2023-05-27T16:27:08;17.50;1.00
11922;DHT22;6021;51.182;3.160;2023-05-27T16:29:37;17.50;1.00
11922;DHT22;6021;51.182;3.160;2023-05-27T16:32:06;17.40;1.00
11922;DHT22;6021;51.182;3.160;2023-05-27T16:34:35;17.30;1.00
11922;DHT22;6021;51.182;3.160;2023-05-27T16:37:07;17.40;1.00
11922;DHT22;6021;51.182;3.160;2023-05-27T16:39:37;17.30;1.00
11922;DHT22;6021;51.182;3.160;2023-05-27T16:42:06;17.30;1.00
11922;DHT22;6021;51.182;3.160;2023-05-27T16:44:47;17.30;1.00
11922;DHT22;6021;51.182;3.160;2023-05-27T16:47:20;17.30;1.00